sensor_id;sensor_type;location;lat;lon;timestamp;P1;durP1;ratioP1;P2;durP2;ratioP2
42168;SDS011;27838;43.858;25.974;2023-04-06T00:02:06;14.60;;;11.10;;
42168;SDS011;27838;43.858;25.974;2023-04-06T00:04:32;14.25;;;10.75;;
42168;SDS011;27838;43.858;25.974;2023-04-06T00:06:59;13.65;;;10.48;;
42168;SDS011;27838;43.858;25.974;2023-04-06T00:09:26;14.55;;;11.07;;
42168;SDS011;27838;43.858;25.974;2023-04-06T00:11:52;14.68;;;11.05;;
42168;SDS011;27838;43.858;25.974;2023-04-06T00:14:19;15.18;;;11.45;;
42168;SDS011;27838;43.858;25.974;2023-04-06T00:16:45;16.50;;;11.27;;
42168;SDS011;27838;43.858;25.974;2023-04-06T00:19:12;22.67;;;11.13;;
42168;SDS011;27838;43.858;25.974;2023-04-06T00:21:38;14.07;;;10.98;;
42168;SDS011;27838;43.858;25.974;2023-04-06T00:24:05;14.25;;;11.13;;
42168;SDS011;27838;43.858;25.974;2023-04-06T00:26:32;15.80;;;11.40;;
42168;SDS011;27838;43.858;25.974;2023-04-06T00:28:58;14.60;;;11.20;;
42168;SDS011;27838;43.858;25.974;2023-04-06T00:31:25;14.88;;;11.40;;
42168;SDS011;27838;43.858;25.974;2023-04-06T00:33:51;14.82;;;11.43;;
42168;SDS011;27838;43.858;25.974;2023-04-06T00:36:18;15.63;;;11.48;;
42168;SDS011;27838;43.858;25.974;2023-04-06T00:38:45;17.83;;;11.80;;
42168;SDS011;27838;43.858;25.974;2023-04-06T00:41:11;15.52;;;11.68;;
42168;SDS011;27838;43.858;25.974;2023-04-06T00:43:38;15.02;;;11.02;;
42168;SDS011;27838;43.858;25.974;2023-04-06T00:46:05;15.02;;;10.95;;
42168;SDS011;27838;43.858;25.974;2023-04-06T00:48:31;13.80;;;11.00;;
42168;SDS011;27838;43.858;25.974;2023-04-06T00:50:58;14.85;;;11.50;;
42168;SDS011;27838;43.858;25.974;2023-04-06T00:53:25;15.75;;;11.68;;
42168;SDS011;27838;43.858;25.974;2023-04-06T00:55:51;14.85;;;10.70;;
42168;SDS011;27838;43.858;25.974;2023-04-06T00:58:18;14.95;;;10.48;;
42168;SDS011;27838;43.858;25.974;2023-04-06T01:00:45;14.70;;;10.90;;
42168;SDS011;27838;43.858;25.974;2023-04-06T01:03:11;14.40;;;10.88;;
42168;SDS011;27838;43.858;25.974;2023-04-06T01:05:38;13.85;;;10.35;;
42168;SDS011;27838;43.858;25.974;2023-04-06T01:08:07;14.43;;;10.80;;
42168;SDS011;27838;43.858;25.974;2023-04-06T01:10:34;13.75;;;9.98;;
42168;SDS011;27838;43.858;25.974;2023-04-06T01:13:00;14.68;;;10.82;;
42168;SDS011;27838;43.858;25.974;2023-04-06T01:15:27;13.57;;;10.63;;
42168;SDS011;27838;43.858;25.974;2023-04-06T01:17:55;14.18;;;10.63;;
42168;SDS011;27838;43.858;25.974;2023-04-06T01:20:22;15.85;;;10.98;;
42168;SDS011;27838;43.858;25.974;2023-04-06T01:22:48;15.27;;;10.98;;
42168;SDS011;27838;43.858;25.974;2023-04-06T01:25:15;13.55;;;10.30;;
42168;SDS011;27838;43.858;25.974;2023-04-06T01:27:41;18.73;;;10.85;;
42168;SDS011;27838;43.858;25.974;2023-04-06T01:30:08;17.00;;;10.73;;
42168;SDS011;27838;43.858;25.974;2023-04-06T01:32:35;15.15;;;10.70;;
42168;SDS011;27838;43.858;25.974;2023-04-06T01:35:02;13.60;;;10.23;;
42168;SDS011;27838;43.858;25.974;2023-04-06T01:37:29;13.38;;;9.63;;
42168;SDS011;27838;43.858;25.974;2023-04-06T01:39:57;16.35;;;11.23;;
42168;SDS011;27838;43.858;25.974;2023-04-06T01:42:24;13.43;;;10.23;;
42168;SDS011;27838;43.858;25.974;2023-04-06T01:44:51;13.95;;;10.38;;
42168;SDS011;27838;43.858;25.974;2023-04-06T01:47:18;13.57;;;10.25;;
42168;SDS011;27838;43.858;25.974;2023-04-06T01:49:44;16.85;;;10.40;;
42168;SDS011;27838;43.858;25.974;2023-04-06T01:52:11;16.77;;;10.85;;
42168;SDS011;27838;43.858;25.974;2023-04-06T01:54:37;13.75;;;10.55;;
42168;SDS011;27838;43.858;25.974;2023-04-06T01:57:04;14.18;;;10.75;;
42168;SDS011;27838;43.858;25.974;2023-04-06T01:59:30;12.98;;;9.82;;
42168;SDS011;27838;43.858;25.974;2023-04-06T02:01:57;15.55;;;11.50;;
42168;SDS011;27838;43.858;25.974;2023-04-06T02:04:24;15.27;;;10.82;;
42168;SDS011;27838;43.858;25.974;2023-04-06T02:06:51;13.68;;;10.55;;
42168;SDS011;27838;43.858;25.974;2023-04-06T02:09:17;13.88;;;10.63;;
42168;SDS011;27838;43.858;25.974;2023-04-06T02:11:44;16.25;;;11.45;;
42168;SDS011;27838;43.858;25.974;2023-04-06T02:14:11;18.45;;;13.50;;
42168;SDS011;27838;43.858;25.974;2023-04-06T02:16:37;17.30;;;13.40;;
42168;SDS011;27838;43.858;25.974;2023-04-06T02:19:04;15.73;;;12.65;;
42168;SDS011;27838;43.858;25.974;2023-04-06T02:21:31;15.55;;;12.65;;
42168;SDS011;27838;43.858;25.974;2023-04-06T02:23:57;16.90;;;12.52;;
42168;SDS011;27838;43.858;25.974;2023-04-06T02:26:24;17.17;;;12.07;;
42168;SDS011;27838;43.858;25.974;2023-04-06T02:28:51;15.73;;;12.00;;
42168;SDS011;27838;43.858;25.974;2023-04-06T02:31:17;16.50;;;12.00;;
42168;SDS011;27838;43.858;25.974;2023-04-06T02:33:44;15.23;;;11.68;;
42168;SDS011;27838;43.858;25.974;2023-04-06T02:36:11;14.15;;;10.80;;
42168;SDS011;27838;43.858;25.974;2023-04-06T02:38:37;18.05;;;11.15;;
42168;SDS011;27838;43.858;25.974;2023-04-06T02:41:04;13.80;;;10.18;;
42168;SDS011;27838;43.858;25.974;2023-04-06T02:43:30;14.45;;;10.70;;
42168;SDS011;27838;43.858;25.974;2023-04-06T02:45:57;15.73;;;10.73;;
42168;SDS011;27838;43.858;25.974;2023-04-06T02:48:24;14.50;;;11.27;;
42168;SDS011;27838;43.858;25.974;2023-04-06T02:50:50;14.82;;;10.95;;
42168;SDS011;27838;43.858;25.974;2023-04-06T02:53:19;14.38;;;10.80;;
42168;SDS011;27838;43.858;25.974;2023-04-06T02:55:46;15.27;;;11.23;;
42168;SDS011;27838;43.858;25.974;2023-04-06T02:58:12;17.25;;;11.93;;
42168;SDS011;27838;43.858;25.974;2023-04-06T03:00:39;16.27;;;10.50;;
42168;SDS011;27838;43.858;25.974;2023-04-06T03:03:05;17.38;;;11.43;;
42168;SDS011;27838;43.858;25.974;2023-04-06T03:05:32;17.02;;;10.95;;
42168;SDS011;27838;43.858;25.974;2023-04-06T03:07:59;16.35;;;11.70;;
42168;SDS011;27838;43.858;25.974;2023-04-06T03:10:26;14.93;;;10.88;;
42168;SDS011;27838;43.858;25.974;2023-04-06T03:12:52;15.27;;;11.63;;
42168;SDS011;27838;43.858;25.974;2023-04-06T03:15:19;15.10;;;10.48;;
42168;SDS011;27838;43.858;25.974;2023-04-06T03:17:45;13.32;;;10.73;;
42168;SDS011;27838;43.858;25.974;2023-04-06T03:20:12;18.85;;;9.98;;
42168;SDS011;27838;43.858;25.974;2023-04-06T03:22:39;14.38;;;11.02;;
42168;SDS011;27838;43.858;25.974;2023-04-06T03:25:05;16.65;;;11.40;;
42168;SDS011;27838;43.858;25.974;2023-04-06T03:27:32;13.30;;;10.45;;
42168;SDS011;27838;43.858;25.974;2023-04-06T03:29:59;14.55;;;10.88;;
42168;SDS011;27838;43.858;25.974;2023-04-06T03:32:25;11.82;;;9.82;;
42168;SDS011;27838;43.858;25.974;2023-04-06T03:34:52;14.13;;;11.02;;
42168;SDS011;27838;43.858;25.974;2023-04-06T03:37:18;13.77;;;9.88;;
42168;SDS011;27838;43.858;25.974;2023-04-06T03:39:45;14.02;;;10.48;;
42168;SDS011;27838;43.858;25.974;2023-04-06T03:42:11;18.15;;;11.73;;
42168;SDS011;27838;43.858;25.974;2023-04-06T03:44:38;14.27;;;11.02;;
42168;SDS011;27838;43.858;25.974;2023-04-06T03:47:05;13.95;;;10.73;;
42168;SDS011;27838;43.858;25.974;2023-04-06T03:49:31;15.70;;;11.13;;
42168;SDS011;27838;43.858;25.974;2023-04-06T03:51:58;15.32;;;11.63;;
42168;SDS011;27838;43.858;25.974;2023-04-06T03:54:24;16.27;;;11.65;;
42168;SDS011;27838;43.858;25.974;2023-04-06T03:56:51;15.65;;;11.85;;
42168;SDS011;27838;43.858;25.974;2023-04-06T03:59:18;18.33;;;11.07;;
42168;SDS011;27838;43.858;25.974;2023-04-06T04:01:44;16.40;;;12.18;;
42168;SDS011;27838;43.858;25.974;2023-04-06T04:04:11;15.27;;;11.98;;
42168;SDS011;27838;43.858;25.974;2023-04-06T04:06:37;17.92;;;12.68;;
42168;SDS011;27838;43.858;25.974;2023-04-06T04:09:04;15.38;;;11.65;;
42168;SDS011;27838;43.858;25.974;2023-04-06T04:11:30;16.42;;;12.20;;
42168;SDS011;27838;43.858;25.974;2023-04-06T04:13:57;21.73;;;11.85;;
42168;SDS011;27838;43.858;25.974;2023-04-06T04:16:24;17.58;;;12.20;;
42168;SDS011;27838;43.858;25.974;2023-04-06T04:18:50;18.05;;;12.40;;
42168;SDS011;27838;43.858;25.974;2023-04-06T04:21:17;21.10;;;11.88;;
42168;SDS011;27838;43.858;25.974;2023-04-06T04:23:43;17.55;;;12.18;;
42168;SDS011;27838;43.858;25.974;2023-04-06T04:26:10;18.67;;;12.63;;
42168;SDS011;27838;43.858;25.974;2023-04-06T04:28:37;24.52;;;13.30;;
42168;SDS011;27838;43.858;25.974;2023-04-06T04:31:03;19.67;;;12.25;;
42168;SDS011;27838;43.858;25.974;2023-04-06T04:33:30;23.38;;;13.40;;
42168;SDS011;27838;43.858;25.974;2023-04-06T04:35:56;17.85;;;12.90;;
42168;SDS011;27838;43.858;25.974;2023-04-06T04:38:23;19.13;;;12.73;;
42168;SDS011;27838;43.858;25.974;2023-04-06T04:40:50;20.90;;;13.27;;
42168;SDS011;27838;43.858;25.974;2023-04-06T04:43:16;20.73;;;13.88;;
42168;SDS011;27838;43.858;25.974;2023-04-06T04:45:43;19.67;;;14.32;;
42168;SDS011;27838;43.858;25.974;2023-04-06T04:48:09;21.75;;;14.57;;
42168;SDS011;27838;43.858;25.974;2023-04-06T04:50:36;20.10;;;13.02;;
42168;SDS011;27838;43.858;25.974;2023-04-06T04:53:02;20.35;;;13.80;;
42168;SDS011;27838;43.858;25.974;2023-04-06T04:55:31;19.27;;;13.50;;
42168;SDS011;27838;43.858;25.974;2023-04-06T04:57:57;17.90;;;13.57;;
42168;SDS011;27838;43.858;25.974;2023-04-06T05:00:24;20.60;;;14.07;;
42168;SDS011;27838;43.858;25.974;2023-04-06T05:02:51;21.20;;;14.75;;
42168;SDS011;27838;43.858;25.974;2023-04-06T05:05:17;23.30;;;14.38;;
42168;SDS011;27838;43.858;25.974;2023-04-06T05:07:44;21.25;;;13.15;;
42168;SDS011;27838;43.858;25.974;2023-04-06T05:10:10;27.73;;;14.73;;
42168;SDS011;27838;43.858;25.974;2023-04-06T05:12:37;25.35;;;14.85;;
42168;SDS011;27838;43.858;25.974;2023-04-06T05:15:04;19.15;;;13.63;;
42168;SDS011;27838;43.858;25.974;2023-04-06T05:17:31;30.45;;;15.10;;
42168;SDS011;27838;43.858;25.974;2023-04-06T05:19:57;23.33;;;13.80;;
42168;SDS011;27838;43.858;25.974;2023-04-06T05:22:24;19.75;;;13.98;;
42168;SDS011;27838;43.858;25.974;2023-04-06T05:24:51;25.08;;;13.98;;
42168;SDS011;27838;43.858;25.974;2023-04-06T05:27:17;18.20;;;13.70;;
42168;SDS011;27838;43.858;25.974;2023-04-06T05:29:44;24.02;;;14.55;;
42168;SDS011;27838;43.858;25.974;2023-04-06T05:32:11;20.20;;;14.23;;
42168;SDS011;27838;43.858;25.974;2023-04-06T05:34:37;22.83;;;14.10;;
42168;SDS011;27838;43.858;25.974;2023-04-06T05:37:04;22.95;;;13.40;;
42168;SDS011;27838;43.858;25.974;2023-04-06T05:39:30;21.83;;;14.15;;
42168;SDS011;27838;43.858;25.974;2023-04-06T05:41:57;20.42;;;14.18;;
42168;SDS011;27838;43.858;25.974;2023-04-06T05:44:24;19.08;;;13.10;;
42168;SDS011;27838;43.858;25.974;2023-04-06T05:46:50;19.23;;;13.93;;
42168;SDS011;27838;43.858;25.974;2023-04-06T05:49:17;26.67;;;14.80;;
42168;SDS011;27838;43.858;25.974;2023-04-06T05:51:43;24.42;;;13.82;;
42168;SDS011;27838;43.858;25.974;2023-04-06T05:54:10;25.20;;;15.05;;
42168;SDS011;27838;43.858;25.974;2023-04-06T05:56:36;20.60;;;14.23;;
42168;SDS011;27838;43.858;25.974;2023-04-06T05:59:03;23.83;;;14.95;;
42168;SDS011;27838;43.858;25.974;2023-04-06T06:01:30;18.85;;;14.07;;
42168;SDS011;27838;43.858;25.974;2023-04-06T06:03:56;25.73;;;14.90;;
42168;SDS011;27838;43.858;25.974;2023-04-06T06:06:23;19.48;;;14.32;;
42168;SDS011;27838;43.858;25.974;2023-04-06T06:08:50;24.83;;;15.40;;
42168;SDS011;27838;43.858;25.974;2023-04-06T06:11:16;23.38;;;13.48;;
42168;SDS011;27838;43.858;25.974;2023-04-06T06:13:43;19.35;;;14.05;;
42168;SDS011;27838;43.858;25.974;2023-04-06T06:16:09;21.40;;;13.70;;
42168;SDS011;27838;43.858;25.974;2023-04-06T06:18:36;20.45;;;13.23;;
42168;SDS011;27838;43.858;25.974;2023-04-06T06:21:03;32.65;;;15.35;;
42168;SDS011;27838;43.858;25.974;2023-04-06T06:23:30;22.83;;;14.10;;
42168;SDS011;27838;43.858;25.974;2023-04-06T06:25:56;19.73;;;13.88;;
42168;SDS011;27838;43.858;25.974;2023-04-06T06:28:23;22.92;;;14.40;;
42168;SDS011;27838;43.858;25.974;2023-04-06T06:30:51;20.50;;;14.02;;
42168;SDS011;27838;43.858;25.974;2023-04-06T06:33:17;21.40;;;14.52;;
42168;SDS011;27838;43.858;25.974;2023-04-06T06:35:44;18.83;;;13.07;;
42168;SDS011;27838;43.858;25.974;2023-04-06T06:38:11;23.48;;;15.15;;
42168;SDS011;27838;43.858;25.974;2023-04-06T06:40:38;21.35;;;14.48;;
42168;SDS011;27838;43.858;25.974;2023-04-06T06:43:06;25.85;;;14.40;;
42168;SDS011;27838;43.858;25.974;2023-04-06T06:45:32;23.55;;;13.85;;
42168;SDS011;27838;43.858;25.974;2023-04-06T06:47:59;19.70;;;14.48;;
42168;SDS011;27838;43.858;25.974;2023-04-06T06:50:26;27.55;;;16.35;;
42168;SDS011;27838;43.858;25.974;2023-04-06T06:52:53;24.65;;;14.18;;
42168;SDS011;27838;43.858;25.974;2023-04-06T06:55:20;23.55;;;14.63;;
42168;SDS011;27838;43.858;25.974;2023-04-06T06:57:47;22.85;;;13.93;;
42168;SDS011;27838;43.858;25.974;2023-04-06T07:00:13;28.00;;;14.60;;
42168;SDS011;27838;43.858;25.974;2023-04-06T07:02:40;22.55;;;14.25;;
42168;SDS011;27838;43.858;25.974;2023-04-06T07:05:07;22.35;;;13.77;;
42168;SDS011;27838;43.858;25.974;2023-04-06T07:07:34;21.60;;;14.05;;
42168;SDS011;27838;43.858;25.974;2023-04-06T07:10:00;19.45;;;13.68;;
42168;SDS011;27838;43.858;25.974;2023-04-06T07:12:27;20.98;;;12.77;;
42168;SDS011;27838;43.858;25.974;2023-04-06T07:14:54;20.58;;;13.93;;
42168;SDS011;27838;43.858;25.974;2023-04-06T07:17:21;24.65;;;14.48;;
42168;SDS011;27838;43.858;25.974;2023-04-06T07:19:47;22.08;;;13.55;;
42168;SDS011;27838;43.858;25.974;2023-04-06T07:22:14;23.17;;;13.25;;
42168;SDS011;27838;43.858;25.974;2023-04-06T07:24:41;21.38;;;12.88;;
42168;SDS011;27838;43.858;25.974;2023-04-06T07:27:07;20.90;;;13.15;;
42168;SDS011;27838;43.858;25.974;2023-04-06T07:29:34;19.58;;;12.65;;
42168;SDS011;27838;43.858;25.974;2023-04-06T07:32:01;19.42;;;12.88;;
42168;SDS011;27838;43.858;25.974;2023-04-06T07:34:27;19.08;;;13.02;;
42168;SDS011;27838;43.858;25.974;2023-04-06T07:36:54;18.65;;;13.07;;
42168;SDS011;27838;43.858;25.974;2023-04-06T07:39:21;18.40;;;13.10;;
42168;SDS011;27838;43.858;25.974;2023-04-06T07:41:48;23.48;;;13.73;;
42168;SDS011;27838;43.858;25.974;2023-04-06T07:44:15;19.73;;;13.82;;
42168;SDS011;27838;43.858;25.974;2023-04-06T07:46:41;21.05;;;12.50;;
42168;SDS011;27838;43.858;25.974;2023-04-06T07:49:08;20.02;;;12.55;;
42168;SDS011;27838;43.858;25.974;2023-04-06T07:51:37;20.42;;;13.15;;
42168;SDS011;27838;43.858;25.974;2023-04-06T07:54:05;18.77;;;11.90;;
42168;SDS011;27838;43.858;25.974;2023-04-06T07:56:32;24.02;;;14.02;;
42168;SDS011;27838;43.858;25.974;2023-04-06T07:58:58;17.05;;;12.93;;
42168;SDS011;27838;43.858;25.974;2023-04-06T08:01:25;20.73;;;13.00;;
42168;SDS011;27838;43.858;25.974;2023-04-06T08:03:53;15.68;;;12.93;;
42168;SDS011;27838;43.858;25.974;2023-04-06T08:06:21;18.20;;;13.13;;
42168;SDS011;27838;43.858;25.974;2023-04-06T08:08:48;16.35;;;12.35;;
42168;SDS011;27838;43.858;25.974;2023-04-06T08:11:14;14.90;;;12.02;;
42168;SDS011;27838;43.858;25.974;2023-04-06T08:13:41;23.60;;;12.65;;
42168;SDS011;27838;43.858;25.974;2023-04-06T08:16:08;21.70;;;12.48;;
42168;SDS011;27838;43.858;25.974;2023-04-06T08:18:34;23.77;;;12.27;;
42168;SDS011;27838;43.858;25.974;2023-04-06T08:21:01;19.75;;;12.70;;
42168;SDS011;27838;43.858;25.974;2023-04-06T08:23:28;21.77;;;13.13;;
42168;SDS011;27838;43.858;25.974;2023-04-06T08:25:54;20.13;;;13.13;;
42168;SDS011;27838;43.858;25.974;2023-04-06T08:28:21;20.40;;;12.55;;
42168;SDS011;27838;43.858;25.974;2023-04-06T08:30:48;23.15;;;13.52;;
42168;SDS011;27838;43.858;25.974;2023-04-06T08:33:14;16.05;;;12.23;;
42168;SDS011;27838;43.858;25.974;2023-04-06T08:35:41;23.20;;;12.40;;
42168;SDS011;27838;43.858;25.974;2023-04-06T08:38:08;18.83;;;12.23;;
42168;SDS011;27838;43.858;25.974;2023-04-06T08:40:38;18.48;;;12.88;;
42168;SDS011;27838;43.858;25.974;2023-04-06T08:43:06;19.95;;;12.90;;
42168;SDS011;27838;43.858;25.974;2023-04-06T08:45:36;17.80;;;12.20;;
42168;SDS011;27838;43.858;25.974;2023-04-06T08:48:04;20.08;;;12.30;;
42168;SDS011;27838;43.858;25.974;2023-04-06T08:50:32;17.55;;;12.82;;
42168;SDS011;27838;43.858;25.974;2023-04-06T08:53:00;20.80;;;12.70;;
42168;SDS011;27838;43.858;25.974;2023-04-06T08:55:27;19.85;;;12.45;;
42168;SDS011;27838;43.858;25.974;2023-04-06T08:57:54;21.60;;;12.55;;
42168;SDS011;27838;43.858;25.974;2023-04-06T09:00:21;23.30;;;13.10;;
42168;SDS011;27838;43.858;25.974;2023-04-06T09:02:49;18.65;;;12.52;;
42168;SDS011;27838;43.858;25.974;2023-04-06T09:05:15;20.30;;;13.90;;
42168;SDS011;27838;43.858;25.974;2023-04-06T09:07:42;15.93;;;12.45;;
42168;SDS011;27838;43.858;25.974;2023-04-06T09:10:10;17.40;;;12.45;;
42168;SDS011;27838;43.858;25.974;2023-04-06T09:12:37;18.88;;;13.63;;
42168;SDS011;27838;43.858;25.974;2023-04-06T09:15:04;15.63;;;11.23;;
42168;SDS011;27838;43.858;25.974;2023-04-06T09:17:31;17.75;;;11.82;;
42168;SDS011;27838;43.858;25.974;2023-04-06T09:20:01;16.23;;;11.73;;
42168;SDS011;27838;43.858;25.974;2023-04-06T09:22:39;20.33;;;12.17;;
42168;SDS011;27838;43.858;25.974;2023-04-06T09:25:08;16.80;;;11.00;;
42168;SDS011;27838;43.858;25.974;2023-04-06T09:27:36;19.27;;;12.75;;
42168;SDS011;27838;43.858;25.974;2023-04-06T09:30:10;25.30;;;12.60;;
42168;SDS011;27838;43.858;25.974;2023-04-06T09:32:49;20.05;;;12.80;;
42168;SDS011;27838;43.858;25.974;2023-04-06T09:35:16;19.40;;;12.85;;
42168;SDS011;27838;43.858;25.974;2023-04-06T09:37:45;20.65;;;12.50;;
42168;SDS011;27838;43.858;25.974;2023-04-06T09:40:13;25.83;;;13.02;;
42168;SDS011;27838;43.858;25.974;2023-04-06T09:42:42;22.55;;;12.68;;
42168;SDS011;27838;43.858;25.974;2023-04-06T09:45:11;18.52;;;12.57;;
42168;SDS011;27838;43.858;25.974;2023-04-06T09:47:38;22.65;;;12.70;;
42168;SDS011;27838;43.858;25.974;2023-04-06T09:50:07;18.52;;;13.23;;
42168;SDS011;27838;43.858;25.974;2023-04-06T09:55:10;25.02;;;12.73;;
42168;SDS011;27838;43.858;25.974;2023-04-06T09:57:45;21.10;;;12.43;;
42168;SDS011;27838;43.858;25.974;2023-04-06T10:00:17;19.65;;;12.70;;
42168;SDS011;27838;43.858;25.974;2023-04-06T10:02:58;23.20;;;13.37;;
42168;SDS011;27838;43.858;25.974;2023-04-06T10:05:37;17.48;;;12.73;;
42168;SDS011;27838;43.858;25.974;2023-04-06T10:08:11;17.65;;;12.02;;
42168;SDS011;27838;43.858;25.974;2023-04-06T10:10:38;18.40;;;12.77;;
42168;SDS011;27838;43.858;25.974;2023-04-06T10:13:05;20.90;;;11.93;;
42168;SDS011;27838;43.858;25.974;2023-04-06T10:15:33;23.45;;;13.35;;
42168;SDS011;27838;43.858;25.974;2023-04-06T10:18:00;54.95;;;38.70;;
42168;SDS011;27838;43.858;25.974;2023-04-06T10:20:46;23.38;;;15.38;;
42168;SDS011;27838;43.858;25.974;2023-04-06T10:23:22;43.63;;;28.63;;
42168;SDS011;27838;43.858;25.974;2023-04-06T10:25:56;49.78;;;18.45;;
42168;SDS011;27838;43.858;25.974;2023-04-06T10:28:24;21.13;;;11.93;;
42168;SDS011;27838;43.858;25.974;2023-04-06T10:30:57;20.50;;;11.90;;
42168;SDS011;27838;43.858;25.974;2023-04-06T10:33:26;29.10;;;12.05;;
42168;SDS011;27838;43.858;25.974;2023-04-06T10:35:54;19.58;;;12.10;;
42168;SDS011;27838;43.858;25.974;2023-04-06T10:38:21;14.02;;;10.80;;
42168;SDS011;27838;43.858;25.974;2023-04-06T10:41:03;16.55;;;11.60;;
42168;SDS011;27838;43.858;25.974;2023-04-06T10:43:35;22.52;;;10.70;;
42168;SDS011;27838;43.858;25.974;2023-04-06T10:46:04;15.25;;;10.82;;
42168;SDS011;27838;43.858;25.974;2023-04-06T10:48:38;18.05;;;10.45;;
42168;SDS011;27838;43.858;25.974;2023-04-06T10:51:15;14.07;;;10.68;;
42168;SDS011;27838;43.858;25.974;2023-04-06T10:53:44;16.05;;;10.10;;
42168;SDS011;27838;43.858;25.974;2023-04-06T10:56:16;17.00;;;9.75;;
42168;SDS011;27838;43.858;25.974;2023-04-06T10:58:45;14.05;;;10.50;;
42168;SDS011;27838;43.858;25.974;2023-04-06T11:01:16;15.50;;;10.20;;
42168;SDS011;27838;43.858;25.974;2023-04-06T11:03:48;18.40;;;10.15;;
42168;SDS011;27838;43.858;25.974;2023-04-06T11:06:22;16.85;;;10.43;;
42168;SDS011;27838;43.858;25.974;2023-04-06T11:08:54;21.52;;;10.43;;
42168;SDS011;27838;43.858;25.974;2023-04-06T11:11:22;17.27;;;10.52;;
42168;SDS011;27838;43.858;25.974;2023-04-06T11:13:55;15.60;;;10.57;;
42168;SDS011;27838;43.858;25.974;2023-04-06T11:16:26;13.70;;;10.68;;
42168;SDS011;27838;43.858;25.974;2023-04-06T11:18:55;13.65;;;10.70;;
42168;SDS011;27838;43.858;25.974;2023-04-06T11:21:36;22.00;;;10.93;;
42168;SDS011;27838;43.858;25.974;2023-04-06T11:26:39;15.20;;;10.85;;
42168;SDS011;27838;43.858;25.974;2023-04-06T11:29:17;15.27;;;10.32;;
42168;SDS011;27838;43.858;25.974;2023-04-06T11:31:48;18.17;;;10.40;;
42168;SDS011;27838;43.858;25.974;2023-04-06T11:34:20;17.35;;;11.40;;
42168;SDS011;27838;43.858;25.974;2023-04-06T11:36:49;15.00;;;10.52;;
42168;SDS011;27838;43.858;25.974;2023-04-06T11:39:22;13.73;;;9.15;;
42168;SDS011;27838;43.858;25.974;2023-04-06T11:41:51;14.02;;;9.80;;
42168;SDS011;27838;43.858;25.974;2023-04-06T11:44:32;16.98;;;9.73;;
42168;SDS011;27838;43.858;25.974;2023-04-06T11:47:04;17.58;;;9.90;;
42168;SDS011;27838;43.858;25.974;2023-04-06T11:49:32;12.88;;;9.10;;
42168;SDS011;27838;43.858;25.974;2023-04-06T11:52:00;12.13;;;9.38;;
42168;SDS011;27838;43.858;25.974;2023-04-06T11:54:34;15.07;;;8.93;;
42168;SDS011;27838;43.858;25.974;2023-04-06T11:57:02;12.57;;;9.30;;
42168;SDS011;27838;43.858;25.974;2023-04-06T11:59:30;12.00;;;8.70;;
42168;SDS011;27838;43.858;25.974;2023-04-06T12:02:00;15.65;;;9.15;;
42168;SDS011;27838;43.858;25.974;2023-04-06T12:04:27;27.83;;;10.02;;
42168;SDS011;27838;43.858;25.974;2023-04-06T12:06:54;15.35;;;9.98;;
42168;SDS011;27838;43.858;25.974;2023-04-06T12:09:22;13.18;;;9.07;;
42168;SDS011;27838;43.858;25.974;2023-04-06T12:11:48;11.38;;;8.20;;
42168;SDS011;27838;43.858;25.974;2023-04-06T12:14:15;15.35;;;9.10;;
42168;SDS011;27838;43.858;25.974;2023-04-06T12:16:42;23.17;;;8.23;;
42168;SDS011;27838;43.858;25.974;2023-04-06T12:19:08;10.85;;;8.38;;
42168;SDS011;27838;43.858;25.974;2023-04-06T12:21:35;11.35;;;8.55;;
42168;SDS011;27838;43.858;25.974;2023-04-06T12:24:03;12.55;;;8.48;;
42168;SDS011;27838;43.858;25.974;2023-04-06T12:26:30;13.25;;;9.10;;
42168;SDS011;27838;43.858;25.974;2023-04-06T12:29:01;14.75;;;8.73;;
42168;SDS011;27838;43.858;25.974;2023-04-06T12:31:32;12.10;;;8.82;;
42168;SDS011;27838;43.858;25.974;2023-04-06T12:34:00;14.18;;;9.10;;
42168;SDS011;27838;43.858;25.974;2023-04-06T12:36:28;15.50;;;9.75;;
42168;SDS011;27838;43.858;25.974;2023-04-06T12:38:54;15.15;;;9.00;;
42168;SDS011;27838;43.858;25.974;2023-04-06T12:41:21;10.88;;;7.78;;
42168;SDS011;27838;43.858;25.974;2023-04-06T12:43:48;12.63;;;8.55;;
42168;SDS011;27838;43.858;25.974;2023-04-06T12:46:15;13.48;;;8.50;;
42168;SDS011;27838;43.858;25.974;2023-04-06T12:48:42;14.25;;;8.55;;
42168;SDS011;27838;43.858;25.974;2023-04-06T12:51:09;11.05;;;7.95;;
42168;SDS011;27838;43.858;25.974;2023-04-06T12:53:35;13.13;;;7.90;;
42168;SDS011;27838;43.858;25.974;2023-04-06T12:56:02;12.63;;;8.38;;
42168;SDS011;27838;43.858;25.974;2023-04-06T12:58:37;12.80;;;8.02;;
42168;SDS011;27838;43.858;25.974;2023-04-06T13:01:05;17.50;;;8.05;;
42168;SDS011;27838;43.858;25.974;2023-04-06T13:03:33;12.43;;;7.88;;
42168;SDS011;27838;43.858;25.974;2023-04-06T13:06:00;12.65;;;8.27;;
42168;SDS011;27838;43.858;25.974;2023-04-06T13:08:28;15.10;;;7.03;;
42168;SDS011;27838;43.858;25.974;2023-04-06T13:10:54;12.90;;;7.97;;
42168;SDS011;27838;43.858;25.974;2023-04-06T13:13:30;13.20;;;7.65;;
42168;SDS011;27838;43.858;25.974;2023-04-06T13:16:01;15.20;;;7.68;;
42168;SDS011;27838;43.858;25.974;2023-04-06T13:18:33;15.07;;;7.82;;
42168;SDS011;27838;43.858;25.974;2023-04-06T13:21:01;20.77;;;7.15;;
42168;SDS011;27838;43.858;25.974;2023-04-06T13:23:28;14.48;;;7.18;;
42168;SDS011;27838;43.858;25.974;2023-04-06T13:26:01;9.35;;;6.57;;
42168;SDS011;27838;43.858;25.974;2023-04-06T13:28:32;11.15;;;6.47;;
42168;SDS011;27838;43.858;25.974;2023-04-06T13:31:01;7.80;;;6.47;;
42168;SDS011;27838;43.858;25.974;2023-04-06T13:33:29;11.50;;;6.90;;
42168;SDS011;27838;43.858;25.974;2023-04-06T13:35:56;15.68;;;7.28;;
42168;SDS011;27838;43.858;25.974;2023-04-06T13:38:23;10.75;;;6.50;;
42168;SDS011;27838;43.858;25.974;2023-04-06T13:40:50;10.38;;;6.70;;
42168;SDS011;27838;43.858;25.974;2023-04-06T13:43:17;11.10;;;6.63;;
42168;SDS011;27838;43.858;25.974;2023-04-06T13:45:49;9.65;;;5.60;;
42168;SDS011;27838;43.858;25.974;2023-04-06T13:48:17;11.48;;;7.00;;
42168;SDS011;27838;43.858;25.974;2023-04-06T13:50:44;8.88;;;6.80;;
42168;SDS011;27838;43.858;25.974;2023-04-06T13:53:11;13.18;;;6.53;;
42168;SDS011;27838;43.858;25.974;2023-04-06T13:55:38;9.50;;;6.22;;
42168;SDS011;27838;43.858;25.974;2023-04-06T13:58:05;9.07;;;6.03;;
42168;SDS011;27838;43.858;25.974;2023-04-06T14:00:31;9.80;;;5.15;;
42168;SDS011;27838;43.858;25.974;2023-04-06T14:02:58;18.33;;;5.72;;
42168;SDS011;27838;43.858;25.974;2023-04-06T14:05:25;15.23;;;5.32;;
42168;SDS011;27838;43.858;25.974;2023-04-06T14:07:52;10.25;;;5.38;;
42168;SDS011;27838;43.858;25.974;2023-04-06T14:10:19;10.15;;;5.45;;
42168;SDS011;27838;43.858;25.974;2023-04-06T14:12:48;11.80;;;5.95;;
42168;SDS011;27838;43.858;25.974;2023-04-06T14:15:15;7.38;;;5.07;;
42168;SDS011;27838;43.858;25.974;2023-04-06T14:17:42;9.05;;;5.75;;
42168;SDS011;27838;43.858;25.974;2023-04-06T14:20:09;8.95;;;5.65;;